Map

Track Data

SID SEASON NUMBER BASIN SUBBASIN NAME ISO_TIME NATURE LAT LON WMO_WIND WMO_PRES WMO_AGENCY TRACK_TYPE DIST2LAND LANDFALL IFLAG USA_AGENCY USA_ATCF_ID USA_LAT USA_LON USA_RECORD USA_STATUS USA_WIND USA_PRES USA_SSHS USA_R34_NE USA_R34_SE USA_R34_SW USA_R34_NW USA_R50_NE USA_R50_SE USA_R50_SW USA_R50_NW USA_R64_NE USA_R64_SE USA_R64_SW USA_R64_NW USA_POCI USA_ROCI USA_RMW USA_EYE TOKYO_LAT TOKYO_LON TOKYO_GRADE TOKYO_WIND TOKYO_PRES TOKYO_R50_DIR TOKYO_R50_LONG TOKYO_R50_SHORT TOKYO_R30_DIR TOKYO_R30_LONG TOKYO_R30_SHORT TOKYO_LAND CMA_LAT CMA_LON CMA_CAT CMA_WIND CMA_PRES HKO_LAT HKO_LON HKO_CAT HKO_WIND HKO_PRES NEWDELHI_LAT NEWDELHI_LON NEWDELHI_GRADE NEWDELHI_WIND NEWDELHI_PRES NEWDELHI_CI NEWDELHI_DP NEWDELHI_POCI REUNION_LAT REUNION_LON REUNION_TYPE REUNION_WIND REUNION_PRES REUNION_TNUM REUNION_CI REUNION_RMW REUNION_R34_NE REUNION_R34_SE REUNION_R34_SW REUNION_R34_NW REUNION_R50_NE REUNION_R50_SE REUNION_R50_SW REUNION_R50_NW REUNION_R64_NE REUNION_R64_SE REUNION_R64_SW REUNION_R64_NW BOM_LAT BOM_LON BOM_TYPE BOM_WIND BOM_PRES BOM_TNUM BOM_CI BOM_RMW BOM_R34_NE BOM_R34_SE BOM_R34_SW BOM_R34_NW BOM_R50_NE BOM_R50_SE BOM_R50_SW BOM_R50_NW BOM_R64_NE BOM_R64_SE BOM_R64_SW BOM_R64_NW BOM_ROCI BOM_POCI BOM_EYE BOM_POS_METHOD BOM_PRES_METHOD NADI_LAT NADI_LON NADI_CAT NADI_WIND NADI_PRES WELLINGTON_LAT WELLINGTON_LON WELLINGTON_WIND WELLINGTON_PRES DS824_LAT DS824_LON DS824_STAGE DS824_WIND DS824_PRES TD9636_LAT TD9636_LON TD9636_STAGE TD9636_WIND TD9636_PRES TD9635_LAT TD9635_LON TD9635_WIND TD9635_PRES TD9635_ROCI NEUMANN_LAT NEUMANN_LON NEUMANN_CLASS NEUMANN_WIND NEUMANN_PRES MLC_LAT MLC_LON MLC_CLASS MLC_WIND MLC_PRES USA_GUST BOM_GUST BOM_GUST_PER REUNION_GUST REUNION_GUST_PER USA_SEAHGT USA_SEARAD_NE USA_SEARAD_SE USA_SEARAD_SW USA_SEARAD_NW STORM_SPEED STORM_DIR
1990202N13130 1990 50 WP MM TASHA 1990-07-21 06:00:00 TS 13.0000 130.000 main 496 496 __O___________ -1 13.0000 130.000 0 19 1004 6 52
1990202N13130 1990 50 WP MM TASHA 1990-07-21 09:00:00 TS 13.1876 130.248 main 522 522 __P___________ -1 13.1876 130.248 0 21 1003 7 44
1990202N13130 1990 50 WP MM TASHA 1990-07-21 12:00:00 TS 13.5000 130.500 main 561 561 __O___________ -1 13.5000 130.500 1 23 1002 9 30
1990202N13130 1990 50 WP MM TASHA 1990-07-21 15:00:00 TS 13.9999 130.732 main 598 598 __P___________ -1 13.9999 130.732 1 23 1002 10 16
1990202N13130 1990 50 WP MM TASHA 1990-07-21 18:00:00 TS 14.5000 130.800 main 628 618 __O___________ -1 14.5000 130.800 1 23 1002 8 349
1990202N13130 1990 50 WP MM TASHA 1990-07-21 21:00:00 TS 14.7875 130.575 main 623 597 __P___________ -1 14.7875 130.575 1 26 1002 8 311
1990202N13130 1990 50 WP MM TASHA 1990-07-22 00:00:00 TS 15.0000 130.200 main 597 582 __O___________ -1 15.0000 130.200 1 29 1002 8 303
1990202N13130 1990 50 WP MM TASHA 1990-07-22 03:00:00 TS 15.2500 129.842 main 579 530 __P___________ -1 15.2500 129.842 1 29 1002 13 296
1990202N13130 1990 50 WP MM TASHA 1990-07-22 06:00:00 TS 15.5800 128.980 main 530 494 O_O___________ jtwc_wp WP101990 15.9000 126.900 20 -1 15.5000 129.500 1 29 1002 14 294
1990202N13130 1990 50 WP MM TASHA 1990-07-22 09:00:00 TS 15.8083 128.543 main 489 484 P_P___________ WP101990 15.9250 127.235 20 -1 15.7500 129.198 1 26 1002 7 307
1990202N13130 1990 50 WP MM TASHA 1990-07-22 12:00:00 TS 16.0000 128.400 main 489 489 O_O___________ jtwc_wp WP101990 16.0000 127.600 20 -1 16.0000 129.000 1 23 1002 4 352
1990202N13130 1990 50 WP MM TASHA 1990-07-22 15:00:00 TS 16.2062 128.485 main 510 510 P_P___________ WP101990 16.1625 128.007 20 -1 16.2500 128.962 1 23 1002 5 33
1990202N13130 1990 50 WP MM TASHA 1990-07-22 18:00:00 TS 16.4500 128.700 main 545 545 O_O___________ jtwc_wp WP101990 16.4000 128.400 20 -1 16.5000 129.000 1 23 1002 6 38
1990202N13130 1990 50 WP MM TASHA 1990-07-22 21:00:00 TS 16.6987 128.891 main 575 575 P_P___________ WP101990 16.6700 128.760 20 -1 16.7275 129.022 1 23 1002 6 28
1990202N13130 1990 50 WP MM TASHA 1990-07-23 00:00:00 TS 17.0000 129.000 main 602 602 O_O___________ jtwc_wp WP101990 17.0000 129.000 20 -1 17.0000 129.000 1 23 1002 7 8
1990202N13130 1990 50 WP MM TASHA 1990-07-23 03:00:00 TS 17.3849 128.989 main 629 628 P_P___________ WP101990 17.3849 129.075 20 -1 17.3849 128.902 1 23 1002 8 350
1990202N13130 1990 50 WP MM TASHA 1990-07-23 06:00:00 TS 17.8000 128.850 main 649 641 O_O___________ jtwc_wp WP101990 17.8000 129.000 20 -1 17.8000 128.700 1 23 1002 9 338
1990202N13130 1990 50 WP MM TASHA 1990-07-23 09:00:00 TS 18.2161 128.635 main 657 633 P_P___________ WP101990 18.2224 128.868 20 -1 18.2099 128.403 1 23 1002 9 325
1990202N13130 1990 50 WP MM TASHA 1990-07-23 12:00:00 TS 18.5500 128.300 main 633 591 O_O___________ jtwc_wp WP101990 18.6000 128.600 20 -1 18.5000 128.000 1 23 1002 9 304
1990202N13130 1990 50 WP MM TASHA 1990-07-23 15:00:00 TS 18.7088 127.862 main 591 539 P_P___________ WP101990 18.8800 128.202 20 -1 18.5375 127.522 1 23 1002 9 286
1990202N13130 1990 50 WP MM TASHA 1990-07-23 18:00:00 TS 18.8000 127.350 main 539 487 O_O___________ jtwc_wp WP101990 19.1000 127.700 20 -1 18.5000 127.000 1 23 1002 10 284
1990202N13130 1990 50 WP MM TASHA 1990-07-23 21:00:00 TS 18.9463 126.821 main 477 428 P_P___________ WP101990 19.3151 127.143 20 -1 18.5774 126.500 1 23 1002 10 287
1990202N13130 1990 50 WP MM TASHA 1990-07-24 00:00:00 TS 19.1000 126.300 main 428 389 O_O___________ jtwc_wp WP101990 19.5000 126.600 20 -1 18.7000 126.000 1 23 1002 10 288
1990202N13130 1990 50 WP MM TASHA 1990-07-24 03:00:00 TS 19.2460 125.842 main 379 344 P_P___________ WP101990 19.6647 126.185 20 -1 18.8274 125.500 1 23 1002 9 289
1990202N13130 1990 50 WP MM TASHA 1990-07-24 06:00:00 TS 19.4000 125.400 main 344 309 O_O___________ jtwc_wp WP101990 19.8000 125.800 20 -1 19.0000 125.000 1 23 1002 9 291
1990202N13130 1990 50 WP MM TASHA 1990-07-24 09:00:00 TS 19.5712 124.929 main 304 273 P_P___________ WP101990 19.9074 125.357 20 -1 19.2349 124.500 1 23 1002 10 291
1990202N13130 1990 50 WP MM TASHA 1990-07-24 12:00:00 TS 19.7500 124.450 main 279 245 O_O___________ jtwc_wp WP101990 20.0000 124.900 20 -1 19.5000 124.000 1 23 1002 10 292
1990202N13130 1990 50 WP MM TASHA 1990-07-24 15:00:00 TS 19.9286 123.979 main 245 231 P_P___________ WP101990 20.1073 124.458 20 -1 19.7499 123.500 1 23 1002 9 294
1990202N13130 1990 50 WP MM TASHA 1990-07-24 18:00:00 TS 20.1143 123.571 main 234 222 O_O___________ jtwc_wp WP101990 20.2000 124.000 20 -1 20.0000 123.000 1 23 1002 8 293
1990202N13130 1990 50 WP MM TASHA 1990-07-24 21:00:00 TS 20.2498 123.192 main 222 218 P_P___________ WP101990 20.2496 123.537 20 -1 20.2503 122.500 1 23 1002 8 287
1990202N13130 1990 50 WP MM TASHA 1990-07-25 00:00:00 TS 20.3400 122.800 main 218 218 O_O___________ jtwc_wp WP101990 20.3000 123.000 20 -1 20.5000 122.000 1 23 1002 9 282
1990202N13130 1990 50 WP MM TASHA 1990-07-25 03:00:00 NR 20.4229 122.300 main 221 172 P_____________ WP101990 20.4229 122.300 20 -1 1 11 278
1990202N13130 1990 50 WP MM TASHA 1990-07-25 06:00:00 NR 20.5000 121.600 main 172 159 O_____________ jtwc_wp WP101990 20.5000 121.600 20 -1 12 270
1990202N13130 1990 50 WP MM TASHA 1990-07-25 09:00:00 NR 20.4222 121.047 main 168 167 P_____________ WP101990 20.4222 121.047 20 -1 10 258
1990202N13130 1990 50 WP MM TASHA 1990-07-25 12:00:00 NR 20.3000 120.600 main 179 179 O_____________ jtwc_wp WP101990 20.3000 120.600 20 -1 8 259
1990202N13130 1990 50 WP MM TASHA 1990-07-25 15:00:00 NR 20.2649 120.205 main 186 186 P_____________ WP101990 20.2649 120.205 20 -1 7 261
1990202N13130 1990 50 WP MM TASHA 1990-07-25 18:00:00 NR 20.2000 119.900 main 202 194 O_____________ jtwc_wp WP101990 20.2000 119.900 20 -1 6 244
1990202N13130 1990 50 WP MM TASHA 1990-07-25 21:00:00 NR 20.0074 119.647 main 200 191 P_____________ WP101990 20.0074 119.647 20 -1 6 223
1990202N13130 1990 50 WP MM TASHA 1990-07-26 00:00:00 NR 19.8000 119.500 main 191 183 O_____________ jtwc_wp WP101990 19.8000 119.500 20 -1 4 208
1990202N13130 1990 50 WP MM TASHA 1990-07-26 03:00:00 NR 19.6775 119.463 main 183 176 P_____________ WP101990 19.6775 119.463 20 -1 2 172
1990202N13130 1990 50 WP MM TASHA 1990-07-26 06:00:00 NR 19.6000 119.500 main 176 168 O_____________ jtwc_wp WP101990 19.6000 119.500 20 -1 2 149
1990202N13130 1990 50 WP MM TASHA 1990-07-26 09:00:00 NR 19.5425 119.550 main 161 161 P_____________ WP101990 19.5425 119.550 20 -1 1 56
1990202N13130 1990 50 WP MM TASHA 1990-07-26 12:00:00 TS 19.6667 119.600 1002 tokyo main 176 160 OO____________ jtwc_wp WP101990 19.5000 119.600 20 -1 20.0000 119.600 2 1002 0 0 0 2 61
1990202N13130 1990 50 WP MM TASHA 1990-07-26 15:00:00 TS 19.6288 119.715 main 160 145 PP____________ WP101990 19.4575 119.615 20 -1 19.8001 119.815 2 1001 0 0 3 123
1990202N13130 1990 50 WP MM TASHA 1990-07-26 18:00:00 TS 19.5200 119.840 1000 tokyo main 145 130 OO____________ jtwc_wp WP101990 19.4000 119.600 20 -1 19.6000 120.000 2 1000 0 0 0 3 140
1990202N13130 1990 50 WP MM TASHA 1990-07-26 21:00:00 TS 19.3717 119.942 main 130 115 PP____________ WP101990 19.3150 119.565 20 -1 19.4000 120.130 2 1000 0 0 3 164
1990202N13130 1990 50 WP MM TASHA 1990-07-27 00:00:00 TS 19.2231 119.931 1000 tokyo main 115 107 OO_O__________ jtwc_wp WP101990 19.2000 119.500 20 -1 19.2000 120.200 2 1000 0 0 0 19.5000 119.500 TD 25 998 3 191
1990202N13130 1990 50 WP MM TASHA 1990-07-27 03:00:00 TS 19.0511 119.883 main 107 99 PP_P__________ WP101990 19.0575 119.407 22 -1 18.9850 120.245 2 1000 0 0 19.3025 119.385 TD 25 998 4 203
1990202N13130 1990 50 WP MM TASHA 1990-07-27 06:00:00 TS 18.8867 119.780 1000 tokyo main 101 101 OO_O__________ jtwc_wp WP101990 18.9000 119.300 25 -1 18.8000 120.200 2 1000 0 0 0 19.1000 119.300 TD 25 998 4 217
1990202N13130 1990 50 WP MM TASHA 1990-07-27 09:00:00 TS 18.7437 119.641 main 110 110 PP_P__________ WP101990 18.7425 119.215 25 -1 18.6700 120.045 2 1000 0 0 18.8925 119.258 TD 25 998 4 228
1990202N13130 1990 50 WP MM TASHA 1990-07-27 12:00:00 TS 18.6250 119.475 1000 tokyo main 118 118 OO_O__________ jtwc_wp WP101990 18.6000 119.100 25 -1 18.6000 119.800 2 1000 0 0 0 18.7000 119.200 TD 25 998 4 241
1990202N13130 1990 50 WP MM TASHA 1990-07-27 15:00:00 TS 18.5437 119.268 main 134 134 PP_P__________ WP101990 18.4850 118.915 25 -1 18.5849 119.538 2 1000 0 0 18.5200 119.080 TD 27 996 5 255
1990202N13130 1990 50 WP MM TASHA 1990-07-27 18:00:00 TS 18.5000 119.000 1000 tokyo main 164 164 OO_O__________ jtwc_wp WP101990 18.4000 118.700 25 -1 18.6000 119.200 2 1000 0 0 0 18.4000 118.900 TD 30 995 6 263
1990202N13130 1990 50 WP MM TASHA 1990-07-27 21:00:00 TS 18.4764 118.655 main 195 195 PP_P__________ WP101990 18.3275 118.507 25 -1 18.6003 118.728 2 998 0 0 18.3775 118.658 TD 32 994 6 268
1990202N13130 1990 50 WP MM TASHA 1990-07-28 00:00:00 TS 18.4750 118.325 35 996 tokyo main 234 234 OO_O__________ jtwc_wp WP101990 18.3000 118.300 25 -1 18.6000 118.300 3 35 996 0 9 65 65 0 18.4000 118.400 TS 35 994 5 271
1990202N13130 1990 50 WP MM TASHA 1990-07-28 03:00:00 TS 18.4893 118.121 main 253 253 PP_P__________ WP101990 18.3425 118.058 27 -1 18.5923 118.112 3 37 994 0 9 82 82 18.4075 118.193 TS 35 993 4 274
1990202N13130 1990 50 WP MM TASHA 1990-07-28 06:00:00 TS 18.5000 117.950 40 992 tokyo main 263 263 OO_O__________ jtwc_wp WP101990 18.4000 117.800 30 -1 18.6000 118.000 3 40 992 0 9 100 100 0 18.4000 118.000 TS 35 992 4 268
1990202N13130 1990 50 WP MM TASHA 1990-07-28 09:00:00 TS 18.4769 117.725 main 292 292 PP_P__________ WP101990 18.4075 117.535 32 -1 18.6425 117.793 3 42 991 0 9 112 112 18.3500 117.800 TS 37 991 4 263
1990202N13130 1990 50 WP MM TASHA 1990-07-28 12:00:00 TS 18.4500 117.500 45 990 tokyo main 312 309 OO_O__________ jtwc_wp WP101990 18.4000 117.300 35 0 18.7000 117.600 3 45 990 0 9 125 125 0 18.3000 117.600 TS 40 990 4 265
1990202N13130 1990 50 WP MM TASHA 1990-07-28 15:00:00 TS 18.4443 117.311 main 329 329 PP_P__________ WP101990 18.3924 117.142 35 0 18.7500 117.485 3 45 990 0 9 125 125 18.2924 117.415 TS 40 990 4 270
1990202N13130 1990 50 WP MM TASHA 1990-07-28 18:00:00 TS 18.4500 117.125 45 990 tokyo main 353 350 OO_O__________ jtwc_wp WP101990 18.4000 117.000 35 0 18.8000 117.400 3 45 990 0 9 125 125 0 18.3000 117.200 TS 40 990 4 272
1990202N13130 1990 50 WP MM TASHA 1990-07-28 21:00:00 TS 18.4550 116.912 main 373 373 PP_P__________ WP101990 18.4500 116.800 37 0 18.8649 117.338 3 45 990 0 9 187 187 18.2926 116.892 TS 42 987 4 274
1990202N13130 1990 50 WP MM TASHA 1990-07-29 00:00:00 TS 18.4750 116.700 45 990 tokyo main 393 393 OO_O__________ jtwc_wp WP101990 18.5000 116.600 40 0 18.9000 117.200 3 45 990 0 9 250 250 0 18.3000 116.600 TS 45 985 4 280
1990202N13130 1990 50 WP MM TASHA 1990-07-29 03:00:00 TS 18.5231 116.496 main 414 414 PP_P__________ WP101990 18.5075 116.420 40 0 18.8577 116.872 3 47 987 0 9 225 225 18.3424 116.420 TS 45 985 4 286
1990202N13130 1990 50 WP MM TASHA 1990-07-29 06:00:00 TS 18.5750 116.325 50 985 tokyo main 437 437 OO_O__________ jtwc_wp WP101990 18.5000 116.300 40 0 18.8000 116.500 4 50 985 0 9 200 200 0 18.4000 116.300 TS 45 985 3 285
1990202N13130 1990 50 WP MM TASHA 1990-07-29 09:00:00 TS 18.5962 116.204 main 447 447 PP_P__________ WP101990 18.4925 116.285 42 0 18.7775 116.198 4 50 985 0 9 200 200 18.4425 116.192 TS 47 982 2 285
1990202N13130 1990 50 WP MM TASHA 1990-07-29 12:00:00 TS 18.6250 116.125 50 985 tokyo main 453 442 OO_O__________ jtwc_wp WP101990 18.5000 116.300 45 0 18.8000 116.000 4 50 985 0 9 200 200 0 18.5000 116.100 STS 50 980 1 299
1990202N13130 1990 50 WP MM TASHA 1990-07-29 15:00:00 TS 18.6662 116.073 main 442 429 PP_P__________ WP101990 18.4975 116.257 45 0 18.8699 116.000 4 50 985 0 9 200 200 18.5550 115.985 STS 50 980 2 328
1990202N13130 1990 50 WP MM TASHA 1990-07-29 18:00:00 TS 18.7750 116.025 50 985 tokyo main 429 415 OO_O__________ jtwc_wp WP101990 18.6000 116.200 45 0 19.0000 116.000 4 50 985 0 9 200 200 0 18.7000 115.900 STS 50 980 3 336
1990202N13130 1990 50 WP MM TASHA 1990-07-29 21:00:00 TS 18.9632 115.928 main 404 372 PP_P__________ WP101990 18.8825 116.157 45 0 19.1627 115.728 4 52 982 0 9 200 200 18.9975 115.885 STS 52 977 5 341
1990202N13130 1990 50 WP MM TASHA 1990-07-30 00:00:00 TS 19.2750 115.850 55 980 tokyo main 372 329 OO_O__________ jtwc_wp WP101990 19.3000 116.100 45 0 19.4000 115.500 4 55 980 9 20 20 9 200 200 0 19.4000 115.900 STS 55 975 8 355
1990202N13130 1990 50 WP MM TASHA 1990-07-30 03:00:00 TS 19.7157 115.853 main 329 277 PP_P__________ WP101990 19.7700 116.000 47 0 19.6826 115.612 4 55 980 9 20 20 9 200 200 19.8275 115.900 STS 55 975 10 0
1990202N13130 1990 50 WP MM TASHA 1990-07-30 06:00:00 TS 20.2500 115.875 55 980 tokyo main 266 212 OO_O__________ jtwc_wp WP101990 20.3000 115.900 50 0 20.1000 115.800 4 55 980 9 20 20 9 200 200 0 20.3000 115.900 STS 55 975 11 0
1990202N13130 1990 50 WP MM TASHA 1990-07-30 09:00:00 TS 20.8144 115.859 main 212 156 PP_P__________ WP101990 20.8425 115.857 50 0 20.7575 115.808 4 55 980 9 20 20 9 200 200 20.7850 115.915 STS 57 972 11 358
1990202N13130 1990 50 WP MM TASHA 1990-07-30 12:00:00 TS 21.3750 115.825 55 980 tokyo main 145 100 OO_O__________ jtwc_wp WP101990 21.4000 115.800 50 0 21.4000 115.800 4 55 980 9 20 20 9 200 200 0 21.3000 115.900 STS 60 970 10 358
1990202N13130 1990 50 WP MM TASHA 1990-07-30 15:00:00 TS 21.8406 115.808 main 100 45 PP_P__________ WP101990 21.9500 115.665 52 0 21.6774 115.967 4 55 980 9 20 20 9 200 200 21.8425 115.823 STS 60 970 10 354
1990202N13130 1990 50 WP MM TASHA 1990-07-30 18:00:00 TS 22.3250 115.725 55 980 tokyo main 45 0 OO_O__________ jtwc_wp WP101990 22.5000 115.500 55 0 22.0000 116.000 4 55 980 9 20 20 9 200 200 0 22.4000 115.700 STS 60 970 11 345
1990202N13130 1990 50 WP MM TASHA 1990-07-30 21:00:00 TS 22.9258 115.498 main 0 0 PP_P__________ WP101990 23.0575 115.328 50 0 22.7406 115.597 4 52 982 9 9 187 187 22.9275 115.572 STS 52 975 13 339
1990202N13130 1990 50 WP MM TASHA 1990-07-31 00:00:00 TS 23.5800 115.213 50 985 tokyo main 0 0 OO_O__________ jtwc_wp WP101990 23.6000 115.200 45 0 23.6000 115.100 4 50 985 0 9 175 175 0 23.5000 115.400 TS 45 980 14 340
1990202N13130 1990 50 WP MM TASHA 1990-07-31 03:00:00 TS 24.2529 114.976 main 0 0 PP_P__________ WP101990 24.1225 115.162 40 0 24.3822 114.854 4 47 987 0 9 162 162 24.1701 115.168 TS 37 986 13 344
1990202N13130 1990 50 WP MM TASHA 1990-07-31 06:00:00 TS 24.8385 114.808 45 990 tokyo main 0 0 OO_O__________ jtwc_wp WP101990 24.6000 115.200 35 0 25.0000 114.700 3 45 990 0 9 150 150 0 24.9000 114.900 TD 30 992 10 348
1990202N13130 1990 50 WP MM TASHA 1990-07-31 09:00:00 TS 25.2174 114.753 main 0 0 PP____________ WP101990 25.0225 115.285 30 -1 25.3325 114.527 3 40 993 0 9 162 90 TD 6 358
1990202N13130 1990 50 WP MM TASHA 1990-07-31 12:00:00 TS 25.4636 114.791 35 996 tokyo main 0 0 OO____________ jtwc_wp WP101990 25.4000 115.400 25 -1 25.5000 114.400 3 35 996 0 4 175 30 0 5 7
1990202N13130 1990 50 WP MM TASHA 1990-07-31 15:00:00 TS 25.6775 114.817 main 0 0 PP____________ WP101990 25.7649 115.478 25 -1 25.6575 114.305 3 997 0 4 4 12
1990202N13130 1990 50 WP MM TASHA 1990-07-31 18:00:00 TS 25.8857 114.886 998 tokyo main 0 0 OO____________ jtwc_wp WP101990 26.1000 115.600 25 -1 25.8000 114.300 2 998 0 0 0 6 28
1990202N13130 1990 50 WP MM TASHA 1990-07-31 21:00:00 TS 26.1964 115.117 main 0 0 PP____________ WP101990 26.4077 115.820 22 -1 25.9851 114.415 2 999 0 0 7 36
1990202N13130 1990 50 WP MM TASHA 1990-08-01 00:00:00 TS 26.4500 115.350 1000 tokyo main 0 OO____________ jtwc_wp WP101990 26.7000 116.100 20 -1 26.2000 114.600 2 1000 0 0 0 7 39

Digital Typhoon Data and Search

About IBTrACS Database

This database is a web-friendly format of International Best Track Archive for Climate Stewardship (IBTrACS), a global best track data archive curated by NOAA dating back to 1842.

Updated: 2021-12-03